createdAt,value
2022-12-16T00:02:57.102Z,598.58
2022-12-16T00:08:28.875Z,598.05
2022-12-16T00:14:00.530Z,597.17
2022-12-16T00:19:32.380Z,597.17
2022-12-16T00:25:04.179Z,596.99
2022-12-16T00:30:42.005Z,596.99
2022-12-16T00:36:19.789Z,597.34
2022-12-16T00:41:51.737Z,597.17
2022-12-16T00:47:23.399Z,596.81
2022-12-16T00:53:01.111Z,596.81
2022-12-16T00:58:39.138Z,596.64
2022-12-16T01:04:16.730Z,595.67
2022-12-16T01:09:54.424Z,594.96
2022-12-16T01:15:32.389Z,594.43
2022-12-16T01:21:06.172Z,593.37
2022-12-16T01:26:37.780Z,592.84
2022-12-16T01:32:15.309Z,592.49
2022-12-16T01:37:53.230Z,592.32
2022-12-16T01:43:31.075Z,591.96
2022-12-16T01:49:08.617Z,592.14
2022-12-16T02:00:15.661Z,592.14
2022-12-16T02:05:53.434Z,592.49
2022-12-16T02:11:30.784Z,592.14
2022-12-16T02:17:08.538Z,592.14
2022-12-16T02:22:40.391Z,591.70
2022-12-16T02:33:47.528Z,590.64
2022-12-16T02:39:19.472Z,590.11
2022-12-16T02:44:57.167Z,589.41
2022-12-16T02:50:34.670Z,588.53
2022-12-16T03:04:09.859Z,586.68
2022-12-16T03:09:47.234Z,586.50
2022-12-16T03:15:19.242Z,585.97
2022-12-16T03:20:56.912Z,585.79
2022-12-16T03:26:28.654Z,585.79
2022-12-16T03:37:30.127Z,586.32
2022-12-16T03:43:02.006Z,586.32
2022-12-16T03:48:34.145Z,585.97
2022-12-16T03:54:05.948Z,585.62
2022-12-16T03:59:43.787Z,584.91
2022-12-16T04:05:15.621Z,585.27
2022-12-16T04:10:53.325Z,584.56
2022-12-16T04:16:30.981Z,584.38
2022-12-16T04:22:02.832Z,583.68
2022-12-16T04:27:34.355Z,582.36
2022-12-16T04:33:06.394Z,581.48
2022-12-16T04:38:38.182Z,581.13
2022-12-16T04:44:10.148Z,580.60
2022-12-16T04:49:41.720Z,579.72
2022-12-16T04:55:13.748Z,578.84
2022-12-16T05:00:45.498Z,577.87
2022-12-16T05:06:17.271Z,577.34
2022-12-16T05:11:49.121Z,576.64
2022-12-16T05:17:20.842Z,575.93
2022-12-16T05:22:52.375Z,575.58
2022-12-16T05:28:24.332Z,575.40
2022-12-16T05:33:56.337Z,574.87
2022-12-16T05:39:28.241Z,574.43
2022-12-16T05:45:00.007Z,574.26
2022-12-16T05:50:32.283Z,573.20
2022-12-16T05:56:04.740Z,572.67
2022-12-16T06:01:36.795Z,571.79
2022-12-16T06:07:08.512Z,571.27
2022-12-16T06:12:40.100Z,570.74
2022-12-16T06:18:12.203Z,569.86
2022-12-16T06:23:44.267Z,569.07
2022-12-16T06:29:15.926Z,568.54
2022-12-16T06:34:47.758Z,568.01
2022-12-16T06:40:19.696Z,567.48
2022-12-16T06:45:51.759Z,566.08
2022-12-16T06:51:23.317Z,565.46
2022-12-16T06:56:55.445Z,564.76
2022-12-16T07:02:27.461Z,564.58
2022-12-16T07:07:59.383Z,563.70
2022-12-16T07:13:31.767Z,562.82
2022-12-16T07:19:03.056Z,561.59
2022-12-16T07:24:34.159Z,560.63
2022-12-16T07:30:05.912Z,559.75
2022-12-16T07:35:37.619Z,558.69
2022-12-16T07:41:09.752Z,557.99
2022-12-16T07:46:41.558Z,557.29
2022-12-16T07:52:13.292Z,556.50
2022-12-16T07:57:44.930Z,555.97
2022-12-16T08:03:16.853Z,555.09
2022-12-16T08:08:48.809Z,554.39
2022-12-16T08:14:20.786Z,553.69
2022-12-16T08:19:58.444Z,553.16
2022-12-16T08:25:30.261Z,552.63
2022-12-16T08:31:02.154Z,552.37
2022-12-16T08:36:34.059Z,551.84
2022-12-16T08:42:05.512Z,550.61
2022-12-16T08:47:37.540Z,549.73
2022-12-16T08:53:09.515Z,549.03
2022-12-16T08:55:32.731Z,548.15
2022-12-16T09:01:07.313Z,547.72
2022-12-16T09:06:40.430Z,547.54
2022-12-16T09:12:08.806Z,547.19
2022-12-16T09:17:40.569Z,546.66
2022-12-16T09:23:12.583Z,545.96
2022-12-16T09:28:44.418Z,545.26
2022-12-16T09:34:16.173Z,544.38
2022-12-16T09:39:48.012Z,543.77
2022-12-16T09:45:19.812Z,543.24
2022-12-16T09:50:51.522Z,542.71
2022-12-16T09:56:23.535Z,542.01
2022-12-16T10:01:55.535Z,541.31
2022-12-16T10:07:27.132Z,540.96
2022-12-16T10:12:58.798Z,540.43
2022-12-16T10:24:00.448Z,539.91
2022-12-16T10:29:32.640Z,539.55
2022-12-16T10:35:04.341Z,539.03
2022-12-16T10:40:36.259Z,538.94
2022-12-16T10:46:07.976Z,538.41
2022-12-16T10:51:39.713Z,538.24
2022-12-16T10:57:11.586Z,537.71
2022-12-16T11:02:43.533Z,537.54
2022-12-16T11:13:45.156Z,537.01
2022-12-16T11:19:16.915Z,536.84
2022-12-16T11:24:48.613Z,536.66
2022-12-16T11:30:20.481Z,536.49
2022-12-16T11:35:52.307Z,535.96
2022-12-16T11:41:24.129Z,535.78
2022-12-16T11:46:56.030Z,535.61
2022-12-16T11:52:36.822Z,535.78
2022-12-16T11:57:59.965Z,535.61
2022-12-16T12:03:32.200Z,535.26
2022-12-16T12:09:03.575Z,534.82
2022-12-16T12:14:35.261Z,534.47
2022-12-16T12:20:12.884Z,534.12
2022-12-16T12:25:44.650Z,533.77
2022-12-16T12:31:16.258Z,533.77
2022-12-16T12:36:47.871Z,533.24
2022-12-16T12:42:19.775Z,533.24
2022-12-16T12:47:52.656Z,532.72
2022-12-16T12:53:24.360Z,532.01
2022-12-16T12:58:56.165Z,531.66
2022-12-16T13:06:48.854Z,530.96
2022-12-16T13:17:50.377Z,530.35
2022-12-16T13:23:22.482Z,529.82
2022-12-16T13:28:54.288Z,529.30
2022-12-16T13:34:26.011Z,528.77
2022-12-16T13:39:57.976Z,527.37
2022-12-16T13:50:59.671Z,525.88
2022-12-16T13:56:31.488Z,524.83
2022-12-16T14:02:03.489Z,523.78
2022-12-16T14:07:34.890Z,523.25
2022-12-16T14:13:06.889Z,522.38
2022-12-16T14:18:43.411Z,522.20
2022-12-16T14:29:40.396Z,520.54
2022-12-16T14:35:12.422Z,519.31
2022-12-16T14:40:44.174Z,518.44
2022-12-16T14:46:15.902Z,517.56
2022-12-16T14:51:47.800Z,517.13
2022-12-16T14:57:20.012Z,516.43
2022-12-16T15:02:52.077Z,515.55
2022-12-16T15:08:24.146Z,515.38
2022-12-16T15:14:03.115Z,514.85
2022-12-16T15:19:27.714Z,514.67
2022-12-16T15:24:59.653Z,513.97
2022-12-16T15:30:31.520Z,513.45
2022-12-16T15:36:03.097Z,512.66
2022-12-16T15:41:35.040Z,511.79
2022-12-16T15:47:12.740Z,510.56
2022-12-16T15:52:44.598Z,510.04
2022-12-16T15:58:16.677Z,509.34
2022-12-16T16:03:48.444Z,508.73
2022-12-16T16:09:20.142Z,508.38
2022-12-16T16:14:52.282Z,507.68
2022-12-16T16:20:23.963Z,506.98
2022-12-16T16:25:59.261Z,506.45
2022-12-16T16:31:27.490Z,505.40
2022-12-16T16:37:01.208Z,504.88
2022-12-16T16:42:33.427Z,504.53
2022-12-16T16:53:37.573Z,503.57
2022-12-16T16:59:09.479Z,502.87
2022-12-16T17:04:41.208Z,502.17
2022-12-16T17:10:13.159Z,501.65
2022-12-16T17:15:44.996Z,500.95
2022-12-16T17:21:16.883Z,500.25
2022-12-16T17:26:48.397Z,499.72
2022-12-16T17:32:20.533Z,499.11
2022-12-16T17:37:52.222Z,497.89
2022-12-16T17:43:24.004Z,497.54
2022-12-16T17:48:56.044Z,496.67
2022-12-16T17:54:29.703Z,496.14
2022-12-16T17:59:59.720Z,495.44
2022-12-16T18:05:38.721Z,495.36
2022-12-16T18:11:03.296Z,495.01
2022-12-16T18:16:35.199Z,494.31
2022-12-16T18:22:07.106Z,493.78
2022-12-16T18:27:38.839Z,493.09
2022-12-16T18:38:40.156Z,491.86
2022-12-16T18:44:11.992Z,491.08
2022-12-16T18:49:43.516Z,490.73
2022-12-16T18:55:15.433Z,489.86
2022-12-16T19:00:47.019Z,488.98
2022-12-16T19:06:18.528Z,488.28
2022-12-16T19:11:50.315Z,487.76
2022-12-16T19:17:22.485Z,487.24
2022-12-16T19:22:54.863Z,487.24
2022-12-16T19:28:26.051Z,486.71
2022-12-16T19:33:58.153Z,486.45
2022-12-16T19:39:29.435Z,485.93
2022-12-16T19:45:01.264Z,485.06
2022-12-16T19:50:32.756Z,484.53
2022-12-16T19:56:04.353Z,483.83
2022-12-16T20:01:36.548Z,483.83
2022-12-16T20:07:08.122Z,482.96
2022-12-16T20:12:39.656Z,482.26
2022-12-16T20:18:11.710Z,481.48
2022-12-16T20:23:43.632Z,480.43
2022-12-16T20:29:15.198Z,479.39
2022-12-16T20:34:46.991Z,478.17
2022-12-16T20:40:18.991Z,477.38
2022-12-16T20:45:50.527Z,476.86
2022-12-16T20:51:26.624Z,476.33
2022-12-16T20:56:54.792Z,475.64
2022-12-16T21:02:32.880Z,474.94
2022-12-16T21:07:58.183Z,474.24
2022-12-16T21:13:30.043Z,474.07
2022-12-16T21:24:33.826Z,473.02
2022-12-16T21:30:05.567Z,472.24
2022-12-16T21:35:37.469Z,471.72
2022-12-16T21:41:11.496Z,470.84
2022-12-16T21:46:43.171Z,469.97
2022-12-16T21:52:15.132Z,469.28
2022-12-16T21:57:47.177Z,468.67
2022-12-16T22:03:19.890Z,468.14
2022-12-16T22:08:51.812Z,467.27
2022-12-16T22:14:23.567Z,466.58
2022-12-16T22:19:56.151Z,465.88
2022-12-16T22:25:27.439Z,465.53
2022-12-16T22:30:59.338Z,464.83
2022-12-16T22:36:31.611Z,464.40
2022-12-16T22:42:03.538Z,463.70
2022-12-16T22:47:35.742Z,463.18
2022-12-16T22:53:07.897Z,462.48
2022-12-16T22:58:39.619Z,462.48
2022-12-16T23:04:12.004Z,461.79
2022-12-16T23:09:43.647Z,461.44
2022-12-16T23:15:15.453Z,461.44
2022-12-16T23:23:07.770Z,460.13
2022-12-16T23:28:39.286Z,460.13
2022-12-16T23:34:11.154Z,460.13
2022-12-16T23:39:42.695Z,459.44
2022-12-16T23:45:14.140Z,459.09
2022-12-16T23:50:45.663Z,458.74
2022-12-16T23:56:17.251Z,458.74
